sensor_id;sensor_type;location;lat;lon;timestamp;pressure;altitude;pressure_sealevel;temperature;humidity
27202;BME280;14717;46.924;15.474;2023-09-07T00:00:13;98554.00;;;15.59;100.00
27202;BME280;14717;46.924;15.474;2023-09-07T00:02:39;98550.59;;;15.62;100.00
27202;BME280;14717;46.924;15.474;2023-09-07T00:05:05;98560.22;;;15.70;100.00
27202;BME280;14717;46.924;15.474;2023-09-07T00:07:31;98558.16;;;15.75;100.00
27202;BME280;14717;46.924;15.474;2023-09-07T00:09:56;98560.13;;;15.75;100.00
27202;BME280;14717;46.924;15.474;2023-09-07T00:12:22;98556.56;;;15.56;100.00
27202;BME280;14717;46.924;15.474;2023-09-07T00:14:47;98552.47;;;15.53;100.00
27202;BME280;14717;46.924;15.474;2023-09-07T00:17:12;98556.75;;;15.46;100.00
27202;BME280;14717;46.924;15.474;2023-09-07T00:19:38;98560.41;;;15.60;100.00
27202;BME280;14717;46.924;15.474;2023-09-07T00:22:04;98564.22;;;15.64;100.00
27202;BME280;14717;46.924;15.474;2023-09-07T00:24:29;98558.34;;;15.78;100.00
27202;BME280;14717;46.924;15.474;2023-09-07T00:26:55;98560.84;;;15.80;100.00
27202;BME280;14717;46.924;15.474;2023-09-07T00:29:20;98557.63;;;15.86;100.00
27202;BME280;14717;46.924;15.474;2023-09-07T00:31:45;98556.19;;;15.75;100.00
27202;BME280;14717;46.924;15.474;2023-09-07T00:34:11;98558.03;;;15.67;100.00
27202;BME280;14717;46.924;15.474;2023-09-07T00:36:36;98552.47;;;15.53;100.00
27202;BME280;14717;46.924;15.474;2023-09-07T00:39:01;98553.56;;;15.39;100.00
27202;BME280;14717;46.924;15.474;2023-09-07T00:41:27;98554.91;;;15.28;100.00
27202;BME280;14717;46.924;15.474;2023-09-07T00:43:52;98554.16;;;15.36;100.00
27202;BME280;14717;46.924;15.474;2023-09-07T00:46:18;98542.53;;;15.47;100.00
27202;BME280;14717;46.924;15.474;2023-09-07T00:48:43;98545.94;;;15.44;100.00
27202;BME280;14717;46.924;15.474;2023-09-07T00:51:08;98543.38;;;15.48;100.00
27202;BME280;14717;46.924;15.474;2023-09-07T00:53:34;98538.75;;;15.57;100.00
27202;BME280;14717;46.924;15.474;2023-09-07T00:55:59;98543.41;;;15.61;100.00
27202;BME280;14717;46.924;15.474;2023-09-07T00:58:25;98535.75;;;15.67;100.00
27202;BME280;14717;46.924;15.474;2023-09-07T01:00:51;98541.31;;;15.53;100.00
27202;BME280;14717;46.924;15.474;2023-09-07T01:03:16;98531.19;;;15.57;100.00
27202;BME280;14717;46.924;15.474;2023-09-07T01:05:47;98527.19;;;15.50;100.00
27202;BME280;14717;46.924;15.474;2023-09-07T01:08:24;98530.97;;;15.27;100.00
27202;BME280;14717;46.924;15.474;2023-09-07T01:10:51;98525.38;;;15.27;100.00
27202;BME280;14717;46.924;15.474;2023-09-07T01:13:17;98525.41;;;15.40;100.00
27202;BME280;14717;46.924;15.474;2023-09-07T01:15:43;98528.88;;;15.19;100.00
27202;BME280;14717;46.924;15.474;2023-09-07T01:18:08;98528.19;;;15.27;100.00
27202;BME280;14717;46.924;15.474;2023-09-07T01:20:35;98522.50;;;15.32;100.00
27202;BME280;14717;46.924;15.474;2023-09-07T01:23:02;98528.41;;;15.12;100.00
27202;BME280;14717;46.924;15.474;2023-09-07T01:25:28;98533.09;;;14.98;100.00
27202;BME280;14717;46.924;15.474;2023-09-07T01:27:53;98533.66;;;15.00;100.00
27202;BME280;14717;46.924;15.474;2023-09-07T01:30:19;98528.59;;;15.02;100.00
27202;BME280;14717;46.924;15.474;2023-09-07T01:32:45;98524.75;;;15.17;100.00
27202;BME280;14717;46.924;15.474;2023-09-07T01:35:11;98528.38;;;15.17;100.00
27202;BME280;14717;46.924;15.474;2023-09-07T01:37:36;98528.50;;;15.07;100.00
27202;BME280;14717;46.924;15.474;2023-09-07T01:40:02;98528.16;;;14.95;100.00
27202;BME280;14717;46.924;15.474;2023-09-07T01:42:32;98524.94;;;14.88;100.00
27202;BME280;14717;46.924;15.474;2023-09-07T01:44:57;98521.66;;;15.00;100.00
27202;BME280;14717;46.924;15.474;2023-09-07T01:47:23;98523.03;;;15.02;100.00
27202;BME280;14717;46.924;15.474;2023-09-07T01:49:48;98509.38;;;14.88;100.00
27202;BME280;14717;46.924;15.474;2023-09-07T01:52:13;98516.78;;;14.60;100.00
27202;BME280;14717;46.924;15.474;2023-09-07T01:54:39;98515.97;;;14.60;100.00
27202;BME280;14717;46.924;15.474;2023-09-07T01:57:04;98509.97;;;14.53;100.00
27202;BME280;14717;46.924;15.474;2023-09-07T01:59:29;98512.72;;;14.71;100.00
27202;BME280;14717;46.924;15.474;2023-09-07T02:01:55;98517.09;;;14.77;100.00
27202;BME280;14717;46.924;15.474;2023-09-07T02:04:20;98514.72;;;14.84;100.00
27202;BME280;14717;46.924;15.474;2023-09-07T02:06:45;98516.91;;;14.69;100.00
27202;BME280;14717;46.924;15.474;2023-09-07T02:09:10;98514.53;;;14.81;100.00
27202;BME280;14717;46.924;15.474;2023-09-07T02:11:36;98520.81;;;14.86;100.00
27202;BME280;14717;46.924;15.474;2023-09-07T02:14:01;98524.94;;;14.88;100.00
27202;BME280;14717;46.924;15.474;2023-09-07T02:16:27;98519.44;;;14.84;100.00
27202;BME280;14717;46.924;15.474;2023-09-07T02:19:00;98519.16;;;14.85;100.00
27202;BME280;14717;46.924;15.474;2023-09-07T02:21:26;98521.88;;;14.72;100.00
27202;BME280;14717;46.924;15.474;2023-09-07T02:23:51;98513.84;;;14.70;100.00
27202;BME280;14717;46.924;15.474;2023-09-07T02:26:16;98521.91;;;14.53;100.00
27202;BME280;14717;46.924;15.474;2023-09-07T02:28:42;98513.44;;;14.45;100.00
27202;BME280;14717;46.924;15.474;2023-09-07T02:31:08;98509.63;;;14.41;100.00
27202;BME280;14717;46.924;15.474;2023-09-07T02:33:34;98512.53;;;14.31;100.00
27202;BME280;14717;46.924;15.474;2023-09-07T02:36:00;98512.44;;;14.18;100.00
27202;BME280;14717;46.924;15.474;2023-09-07T02:38:26;98508.31;;;14.34;100.00
27202;BME280;14717;46.924;15.474;2023-09-07T02:40:51;98512.31;;;14.46;100.00
27202;BME280;14717;46.924;15.474;2023-09-07T02:43:16;98509.69;;;14.36;100.00
27202;BME280;14717;46.924;15.474;2023-09-07T02:45:42;98510.97;;;14.25;100.00
27202;BME280;14717;46.924;15.474;2023-09-07T02:48:07;98515.31;;;14.31;100.00
27202;BME280;14717;46.924;15.474;2023-09-07T02:50:33;98515.41;;;14.45;100.00
27202;BME280;14717;46.924;15.474;2023-09-07T02:53:02;98513.34;;;14.50;100.00
27202;BME280;14717;46.924;15.474;2023-09-07T02:55:29;98512.53;;;14.31;100.00
27202;BME280;14717;46.924;15.474;2023-09-07T02:57:56;98522.53;;;14.32;100.00
27202;BME280;14717;46.924;15.474;2023-09-07T03:00:21;98514.31;;;14.22;100.00
27202;BME280;14717;46.924;15.474;2023-09-07T03:02:47;98518.69;;;14.28;100.00
27202;BME280;14717;46.924;15.474;2023-09-07T03:05:13;98517.03;;;14.46;100.00
27202;BME280;14717;46.924;15.474;2023-09-07T03:07:39;98524.19;;;14.33;100.00
27202;BME280;14717;46.924;15.474;2023-09-07T03:10:04;98519.22;;;14.30;100.00
27202;BME280;14717;46.924;15.474;2023-09-07T03:12:30;98517.19;;;14.36;100.00
27202;BME280;14717;46.924;15.474;2023-09-07T03:14:55;98522.16;;;14.39;100.00
27202;BME280;14717;46.924;15.474;2023-09-07T03:17:20;98515.63;;;14.11;100.00
27202;BME280;14717;46.924;15.474;2023-09-07T03:19:49;98511.25;;;14.05;100.00
27202;BME280;14717;46.924;15.474;2023-09-07T03:22:14;98508.16;;;14.07;100.00
27202;BME280;14717;46.924;15.474;2023-09-07T03:24:40;98516.88;;;14.19;100.00
27202;BME280;14717;46.924;15.474;2023-09-07T03:27:05;98520.78;;;14.18;100.00
27202;BME280;14717;46.924;15.474;2023-09-07T03:29:31;98520.09;;;14.07;100.00
27202;BME280;14717;46.924;15.474;2023-09-07T03:31:59;98516.81;;;14.05;100.00
27202;BME280;14717;46.924;15.474;2023-09-07T03:34:25;98508.06;;;13.94;100.00
27202;BME280;14717;46.924;15.474;2023-09-07T03:36:50;98522.47;;;13.96;100.00
27202;BME280;14717;46.924;15.474;2023-09-07T03:39:15;98512.47;;;13.95;100.00
27202;BME280;14717;46.924;15.474;2023-09-07T03:41:40;98511.94;;;13.93;100.00
27202;BME280;14717;46.924;15.474;2023-09-07T03:44:06;98507.53;;;13.92;100.00
27202;BME280;14717;46.924;15.474;2023-09-07T03:46:31;98512.53;;;13.90;100.00
27202;BME280;14717;46.924;15.474;2023-09-07T03:48:57;98513.31;;;13.72;100.00
27202;BME280;14717;46.924;15.474;2023-09-07T03:51:22;98506.66;;;13.73;100.00
27202;BME280;14717;46.924;15.474;2023-09-07T03:53:47;98519.69;;;13.54;100.00
27202;BME280;14717;46.924;15.474;2023-09-07T03:56:12;98515.75;;;13.55;100.00
27202;BME280;14717;46.924;15.474;2023-09-07T03:58:38;98516.59;;;13.79;100.00
27202;BME280;14717;46.924;15.474;2023-09-07T04:01:03;98511.94;;;13.93;100.00
27202;BME280;14717;46.924;15.474;2023-09-07T04:03:29;98515.22;;;13.76;100.00
27202;BME280;14717;46.924;15.474;2023-09-07T04:05:55;98518.72;;;13.63;100.00
27202;BME280;14717;46.924;15.474;2023-09-07T04:08:20;98521.31;;;13.55;100.00
27202;BME280;14717;46.924;15.474;2023-09-07T04:10:46;98521.66;;;13.49;100.00
27202;BME280;14717;46.924;15.474;2023-09-07T04:13:12;98519.19;;;13.47;100.00
27202;BME280;14717;46.924;15.474;2023-09-07T04:15:44;98522.91;;;13.61;100.00
27202;BME280;14717;46.924;15.474;2023-09-07T04:18:10;98529.13;;;13.53;100.00
27202;BME280;14717;46.924;15.474;2023-09-07T04:20:38;98531.47;;;13.41;100.00
27202;BME280;14717;46.924;15.474;2023-09-07T04:23:04;98537.03;;;13.41;100.00
27202;BME280;14717;46.924;15.474;2023-09-07T04:25:29;98545.88;;;13.43;100.00
27202;BME280;14717;46.924;15.474;2023-09-07T04:27:55;98545.06;;;13.43;100.00
27202;BME280;14717;46.924;15.474;2023-09-07T04:30:21;98542.13;;;13.34;100.00
27202;BME280;14717;46.924;15.474;2023-09-07T04:32:47;98549.53;;;13.39;100.00
27202;BME280;14717;46.924;15.474;2023-09-07T04:35:12;98547.38;;;13.36;100.00
27202;BME280;14717;46.924;15.474;2023-09-07T04:37:37;98553.09;;;13.44;100.00
27202;BME280;14717;46.924;15.474;2023-09-07T04:40:05;98544.72;;;13.49;100.00
27202;BME280;14717;46.924;15.474;2023-09-07T04:42:31;98551.78;;;13.60;100.00
27202;BME280;14717;46.924;15.474;2023-09-07T04:44:56;98551.09;;;13.73;100.00
27202;BME280;14717;46.924;15.474;2023-09-07T04:47:22;98545.72;;;13.81;100.00
27202;BME280;14717;46.924;15.474;2023-09-07T04:49:50;98546.53;;;13.82;100.00
27202;BME280;14717;46.924;15.474;2023-09-07T04:52:16;98549.28;;;13.82;100.00
27202;BME280;14717;46.924;15.474;2023-09-07T04:54:41;98547.31;;;13.87;100.00
27202;BME280;14717;46.924;15.474;2023-09-07T04:57:07;98553.22;;;13.81;100.00
27202;BME280;14717;46.924;15.474;2023-09-07T04:59:32;98557.22;;;13.70;100.00
27202;BME280;14717;46.924;15.474;2023-09-07T05:02:00;98560.25;;;13.73;100.00
27202;BME280;14717;46.924;15.474;2023-09-07T05:04:27;98563.13;;;13.87;100.00
27202;BME280;14717;46.924;15.474;2023-09-07T05:06:52;98554.03;;;14.04;100.00
27202;BME280;14717;46.924;15.474;2023-09-07T05:09:17;98562.53;;;14.13;100.00
27202;BME280;14717;46.924;15.474;2023-09-07T05:11:45;98560.69;;;14.08;100.00
27202;BME280;14717;46.924;15.474;2023-09-07T05:14:10;98569.34;;;14.02;100.00
27202;BME280;14717;46.924;15.474;2023-09-07T05:16:35;98566.09;;;14.18;100.00
27202;BME280;14717;46.924;15.474;2023-09-07T05:19:01;98571.81;;;14.27;100.00
27202;BME280;14717;46.924;15.474;2023-09-07T05:21:26;98569.13;;;14.40;100.00
27202;BME280;14717;46.924;15.474;2023-09-07T05:23:51;98578.19;;;14.46;100.00
27202;BME280;14717;46.924;15.474;2023-09-07T05:26:21;98576.78;;;14.48;100.00
27202;BME280;14717;46.924;15.474;2023-09-07T05:28:49;98578.28;;;14.59;100.00
27202;BME280;14717;46.924;15.474;2023-09-07T05:31:14;98563.91;;;14.70;100.00
27202;BME280;14717;46.924;15.474;2023-09-07T05:33:40;98576.75;;;14.85;100.00
27202;BME280;14717;46.924;15.474;2023-09-07T05:36:05;98576.28;;;14.96;100.00
27202;BME280;14717;46.924;15.474;2023-09-07T05:38:30;98578.88;;;14.92;100.00
27202;BME280;14717;46.924;15.474;2023-09-07T05:40:56;98580.66;;;15.02;100.00
27202;BME280;14717;46.924;15.474;2023-09-07T05:43:21;98581.41;;;15.07;100.00
27202;BME280;14717;46.924;15.474;2023-09-07T05:45:47;98580.78;;;15.10;100.00
27202;BME280;14717;46.924;15.474;2023-09-07T05:48:12;98576.25;;;15.14;100.00
27202;BME280;14717;46.924;15.474;2023-09-07T05:50:38;98579.88;;;15.33;100.00
27202;BME280;14717;46.924;15.474;2023-09-07T05:53:04;98577.00;;;15.51;100.00
27202;BME280;14717;46.924;15.474;2023-09-07T05:55:30;98583.13;;;15.67;100.00
27202;BME280;14717;46.924;15.474;2023-09-07T05:57:56;98585.09;;;15.79;100.00
27202;BME280;14717;46.924;15.474;2023-09-07T06:00:22;98588.91;;;15.97;100.00
27202;BME280;14717;46.924;15.474;2023-09-07T06:02:49;98598.94;;;16.11;100.00
27202;BME280;14717;46.924;15.474;2023-09-07T06:05:14;98596.75;;;16.35;100.00
27202;BME280;14717;46.924;15.474;2023-09-07T06:07:39;98589.72;;;16.51;100.00
27202;BME280;14717;46.924;15.474;2023-09-07T06:10:05;98584.31;;;16.67;100.00
27202;BME280;14717;46.924;15.474;2023-09-07T06:12:31;98586.22;;;16.80;100.00
27202;BME280;14717;46.924;15.474;2023-09-07T06:14:56;98588.28;;;16.88;100.00
27202;BME280;14717;46.924;15.474;2023-09-07T06:17:22;98586.63;;;16.87;100.00
27202;BME280;14717;46.924;15.474;2023-09-07T06:19:47;98592.75;;;17.11;100.00
27202;BME280;14717;46.924;15.474;2023-09-07T06:22:12;98596.44;;;17.20;100.00
27202;BME280;14717;46.924;15.474;2023-09-07T06:24:37;98602.44;;;17.13;100.00
27202;BME280;14717;46.924;15.474;2023-09-07T06:27:03;98593.63;;;16.98;100.00
27202;BME280;14717;46.924;15.474;2023-09-07T06:29:28;98596.16;;;17.08;100.00
27202;BME280;14717;46.924;15.474;2023-09-07T06:31:54;98597.09;;;17.39;100.00
27202;BME280;14717;46.924;15.474;2023-09-07T06:34:19;98603.28;;;17.57;100.00
27202;BME280;14717;46.924;15.474;2023-09-07T06:36:44;98603.25;;;17.79;100.00
27202;BME280;14717;46.924;15.474;2023-09-07T06:39:10;98599.53;;;17.92;100.00
27202;BME280;14717;46.924;15.474;2023-09-07T06:41:35;98613.03;;;17.90;100.00
27202;BME280;14717;46.924;15.474;2023-09-07T06:44:00;98604.00;;;17.93;100.00
27202;BME280;14717;46.924;15.474;2023-09-07T06:46:26;98608.59;;;17.97;100.00
27202;BME280;14717;46.924;15.474;2023-09-07T06:48:52;98613.03;;;17.90;100.00
27202;BME280;14717;46.924;15.474;2023-09-07T06:51:17;98602.00;;;17.93;100.00
27202;BME280;14717;46.924;15.474;2023-09-07T06:53:42;98618.00;;;18.01;100.00
27202;BME280;14717;46.924;15.474;2023-09-07T06:56:08;98607.31;;;18.03;100.00
27202;BME280;14717;46.924;15.474;2023-09-07T06:58:33;98612.59;;;18.05;100.00
27202;BME280;14717;46.924;15.474;2023-09-07T07:00:59;98607.44;;;18.29;100.00
27202;BME280;14717;46.924;15.474;2023-09-07T07:03:27;98607.97;;;18.31;100.00
27202;BME280;14717;46.924;15.474;2023-09-07T07:05:53;98606.31;;;18.30;100.00
27202;BME280;14717;46.924;15.474;2023-09-07T07:08:18;98610.50;;;18.49;100.00
27202;BME280;14717;46.924;15.474;2023-09-07T07:10:43;98607.72;;;18.57;100.00
27202;BME280;14717;46.924;15.474;2023-09-07T07:13:08;98610.03;;;18.72;100.00
27202;BME280;14717;46.924;15.474;2023-09-07T07:15:35;98616.31;;;18.86;100.00
27202;BME280;14717;46.924;15.474;2023-09-07T07:18:01;98619.34;;;19.15;99.76
27202;BME280;14717;46.924;15.474;2023-09-07T07:20:26;98621.16;;;19.44;100.00
27202;BME280;14717;46.924;15.474;2023-09-07T07:22:52;98629.19;;;19.71;96.87
27202;BME280;14717;46.924;15.474;2023-09-07T07:25:17;98619.66;;;19.63;98.35
27202;BME280;14717;46.924;15.474;2023-09-07T07:27:42;98620.50;;;19.56;98.44
27202;BME280;14717;46.924;15.474;2023-09-07T07:30:08;98626.88;;;19.73;96.05
27202;BME280;14717;46.924;15.474;2023-09-07T07:32:34;98617.19;;;20.16;95.96
27202;BME280;14717;46.924;15.474;2023-09-07T07:35:00;98625.94;;;20.23;92.28
27202;BME280;14717;46.924;15.474;2023-09-07T07:37:25;98628.63;;;20.48;92.04
27202;BME280;14717;46.924;15.474;2023-09-07T07:39:51;98630.38;;;20.69;93.78
27202;BME280;14717;46.924;15.474;2023-09-07T07:42:16;98628.78;;;20.89;93.17
27202;BME280;14717;46.924;15.474;2023-09-07T07:44:43;98627.19;;;20.99;91.17
27202;BME280;14717;46.924;15.474;2023-09-07T07:47:09;98627.63;;;21.10;93.19
27202;BME280;14717;46.924;15.474;2023-09-07T07:49:34;98626.09;;;21.12;93.65
27202;BME280;14717;46.924;15.474;2023-09-07T07:52:01;98630.16;;;21.23;88.10
27202;BME280;14717;46.924;15.474;2023-09-07T07:54:26;98637.72;;;20.82;91.17
27202;BME280;14717;46.924;15.474;2023-09-07T07:56:53;98629.00;;;20.75;92.66
27202;BME280;14717;46.924;15.474;2023-09-07T07:59:19;98627.38;;;20.94;91.54
27202;BME280;14717;46.924;15.474;2023-09-07T08:01:44;98634.00;;;20.98;91.97
27202;BME280;14717;46.924;15.474;2023-09-07T08:04:10;98624.75;;;21.18;91.97
27202;BME280;14717;46.924;15.474;2023-09-07T08:06:36;98632.97;;;21.23;91.10
27202;BME280;14717;46.924;15.474;2023-09-07T08:09:02;98626.72;;;21.38;89.72
27202;BME280;14717;46.924;15.474;2023-09-07T08:11:27;98626.09;;;21.33;88.69
27202;BME280;14717;46.924;15.474;2023-09-07T08:13:53;98627.50;;;21.47;87.33
27202;BME280;14717;46.924;15.474;2023-09-07T08:16:18;98627.88;;;21.78;88.69
27202;BME280;14717;46.924;15.474;2023-09-07T08:18:44;98629.03;;;21.77;84.41
27202;BME280;14717;46.924;15.474;2023-09-07T08:21:10;98629.03;;;21.77;83.49
27202;BME280;14717;46.924;15.474;2023-09-07T08:23:35;98631.75;;;21.85;82.18
27202;BME280;14717;46.924;15.474;2023-09-07T08:26:01;98627.44;;;21.87;78.65
27202;BME280;14717;46.924;15.474;2023-09-07T08:28:28;98626.34;;;22.12;80.08
27202;BME280;14717;46.924;15.474;2023-09-07T08:30:54;98627.13;;;22.45;77.16
27202;BME280;14717;46.924;15.474;2023-09-07T08:33:21;98623.63;;;22.71;75.58
27202;BME280;14717;46.924;15.474;2023-09-07T08:35:52;98622.44;;;22.84;73.09
27202;BME280;14717;46.924;15.474;2023-09-07T08:38:18;98619.75;;;22.76;70.23
27202;BME280;14717;46.924;15.474;2023-09-07T08:40:44;98622.00;;;22.94;69.94
27202;BME280;14717;46.924;15.474;2023-09-07T08:43:11;98621.72;;;23.11;71.04
27202;BME280;14717;46.924;15.474;2023-09-07T08:45:45;98631.53;;;23.41;71.87
27202;BME280;14717;46.924;15.474;2023-09-07T08:48:13;98633.28;;;23.45;70.10
27202;BME280;14717;46.924;15.474;2023-09-07T08:50:44;98622.47;;;23.47;67.37
27202;BME280;14717;46.924;15.474;2023-09-07T08:53:14;98626.00;;;23.44;66.29
27202;BME280;14717;46.924;15.474;2023-09-07T08:55:40;98617.59;;;23.71;69.38
27202;BME280;14717;46.924;15.474;2023-09-07T08:58:05;98619.72;;;23.90;66.91
27202;BME280;14717;46.924;15.474;2023-09-07T09:00:31;98619.41;;;24.06;66.54
27202;BME280;14717;46.924;15.474;2023-09-07T09:02:57;98620.88;;;24.16;64.51
27202;BME280;14717;46.924;15.474;2023-09-07T09:05:23;98616.47;;;24.03;64.99
27202;BME280;14717;46.924;15.474;2023-09-07T09:08:00;98613.47;;;24.39;66.23
27202;BME280;14717;46.924;15.474;2023-09-07T09:10:26;98624.50;;;24.43;63.97
27202;BME280;14717;46.924;15.474;2023-09-07T09:12:51;98617.91;;;24.39;65.63
27202;BME280;14717;46.924;15.474;2023-09-07T09:15:16;98614.03;;;24.17;66.07
27202;BME280;14717;46.924;15.474;2023-09-07T09:17:42;98613.84;;;24.25;64.75
27202;BME280;14717;46.924;15.474;2023-09-07T09:20:28;98617.81;;;24.36;64.84
27202;BME280;14717;46.924;15.474;2023-09-07T09:22:54;98606.50;;;24.21;66.03
27202;BME280;14717;46.924;15.474;2023-09-07T09:25:20;98609.97;;;24.45;62.87
27202;BME280;14717;46.924;15.474;2023-09-07T09:27:47;98610.56;;;24.23;66.45
27202;BME280;14717;46.924;15.474;2023-09-07T09:30:13;98606.16;;;24.38;65.31
27202;BME280;14717;46.924;15.474;2023-09-07T09:32:41;98616.72;;;24.71;63.06
27202;BME280;14717;46.924;15.474;2023-09-07T09:35:08;98607.78;;;24.84;58.52
27202;BME280;14717;46.924;15.474;2023-09-07T09:37:43;98608.09;;;25.14;61.74
27202;BME280;14717;46.924;15.474;2023-09-07T09:40:09;98608.03;;;25.10;63.83
27202;BME280;14717;46.924;15.474;2023-09-07T09:42:35;98613.03;;;25.17;59.40
27202;BME280;14717;46.924;15.474;2023-09-07T09:45:01;98603.03;;;25.04;55.88
27202;BME280;14717;46.924;15.474;2023-09-07T09:47:30;98610.25;;;25.35;58.20
27202;BME280;14717;46.924;15.474;2023-09-07T09:49:57;98603.53;;;25.25;59.41
27202;BME280;14717;46.924;15.474;2023-09-07T09:52:24;98601.34;;;25.52;56.30
27202;BME280;14717;46.924;15.474;2023-09-07T09:54:51;98605.22;;;25.63;54.30
27202;BME280;14717;46.924;15.474;2023-09-07T09:57:17;98595.03;;;25.77;53.65
27202;BME280;14717;46.924;15.474;2023-09-07T09:59:43;98595.22;;;25.88;50.34
27202;BME280;14717;46.924;15.474;2023-09-07T10:02:10;98603.53;;;26.18;50.46
27202;BME280;14717;46.924;15.474;2023-09-07T10:04:35;98596.91;;;26.30;52.88
27202;BME280;14717;46.924;15.474;2023-09-07T10:07:01;98597.31;;;26.51;49.83
27202;BME280;14717;46.924;15.474;2023-09-07T10:09:32;98601.69;;;26.48;49.26
27202;BME280;14717;46.924;15.474;2023-09-07T10:11:59;98595.84;;;26.38;48.36
27202;BME280;14717;46.924;15.474;2023-09-07T10:14:39;98594.22;;;26.18;44.69
27202;BME280;14717;46.924;15.474;2023-09-07T10:17:06;98594.09;;;26.11;44.74
27202;BME280;14717;46.924;15.474;2023-09-07T10:19:31;98595.84;;;26.19;43.99
27202;BME280;14717;46.924;15.474;2023-09-07T10:21:57;98601.41;;;26.31;44.12
27202;BME280;14717;46.924;15.474;2023-09-07T10:24:33;98605.19;;;26.19;42.56
27202;BME280;14717;46.924;15.474;2023-09-07T10:27:03;98598.56;;;26.12;45.80
27202;BME280;14717;46.924;15.474;2023-09-07T10:29:41;98594.69;;;26.42;44.82
27202;BME280;14717;46.924;15.474;2023-09-07T10:32:06;98587.53;;;26.48;45.26
27202;BME280;14717;46.924;15.474;2023-09-07T10:34:35;98590.53;;;26.58;45.04
27202;BME280;14717;46.924;15.474;2023-09-07T10:37:03;98584.75;;;26.74;48.29
27202;BME280;14717;46.924;15.474;2023-09-07T10:39:32;98583.09;;;26.73;43.86
27202;BME280;14717;46.924;15.474;2023-09-07T10:41:57;98583.56;;;26.53;46.34
27202;BME280;14717;46.924;15.474;2023-09-07T10:44:28;98582.97;;;26.66;45.55
27202;BME280;14717;46.924;15.474;2023-09-07T10:46:55;98584.53;;;26.63;47.79
27202;BME280;14717;46.924;15.474;2023-09-07T10:49:21;98581.09;;;26.51;46.26
27202;BME280;14717;46.924;15.474;2023-09-07T10:51:48;98578.50;;;26.65;46.05
27202;BME280;14717;46.924;15.474;2023-09-07T10:54:23;98569.97;;;26.65;43.19
27202;BME280;14717;46.924;15.474;2023-09-07T10:56:50;98574.38;;;26.59;45.75
27202;BME280;14717;46.924;15.474;2023-09-07T10:59:16;98557.59;;;26.51;49.70
27202;BME280;14717;46.924;15.474;2023-09-07T11:01:43;98561.78;;;26.34;45.57
27202;BME280;14717;46.924;15.474;2023-09-07T11:04:09;98554.69;;;26.25;52.24
27202;BME280;14717;46.924;15.474;2023-09-07T11:06:37;98558.31;;;26.92;45.67
27202;BME280;14717;46.924;15.474;2023-09-07T11:09:03;98558.09;;;27.04;46.40
27202;BME280;14717;46.924;15.474;2023-09-07T11:11:34;98563.63;;;26.71;46.37
27202;BME280;14717;46.924;15.474;2023-09-07T11:14:02;98564.47;;;26.72;47.04
27202;BME280;14717;46.924;15.474;2023-09-07T11:16:28;98561.22;;;27.21;45.11
27202;BME280;14717;46.924;15.474;2023-09-07T11:18:53;98550.53;;;27.44;43.37
27202;BME280;14717;46.924;15.474;2023-09-07T11:21:20;98544.28;;;27.57;44.43
27202;BME280;14717;46.924;15.474;2023-09-07T11:23:46;98545.53;;;27.60;46.94
27202;BME280;14717;46.924;15.474;2023-09-07T11:26:11;98542.88;;;27.44;44.61
27202;BME280;14717;46.924;15.474;2023-09-07T11:28:37;98544.19;;;26.73;47.84
27202;BME280;14717;46.924;15.474;2023-09-07T11:31:03;98537.69;;;26.73;47.53
27202;BME280;14717;46.924;15.474;2023-09-07T11:33:31;98536.44;;;26.93;48.87
27202;BME280;14717;46.924;15.474;2023-09-07T11:35:57;98536.00;;;26.68;47.96
27202;BME280;14717;46.924;15.474;2023-09-07T11:38:22;98536.31;;;26.63;49.07
27202;BME280;14717;46.924;15.474;2023-09-07T11:40:48;98533.72;;;26.77;48.21
27202;BME280;14717;46.924;15.474;2023-09-07T11:43:15;98532.31;;;26.42;48.27
27202;BME280;14717;46.924;15.474;2023-09-07T11:45:42;98530.22;;;26.61;50.79
27202;BME280;14717;46.924;15.474;2023-09-07T11:48:08;98524.69;;;26.24;48.15
27202;BME280;14717;46.924;15.474;2023-09-07T11:50:34;98524.72;;;26.46;48.35
27202;BME280;14717;46.924;15.474;2023-09-07T11:53:00;98516.47;;;26.86;49.82
27202;BME280;14717;46.924;15.474;2023-09-07T11:55:25;98523.84;;;26.90;48.16
27202;BME280;14717;46.924;15.474;2023-09-07T11:57:51;98525.13;;;27.51;46.33
27202;BME280;14717;46.924;15.474;2023-09-07T12:00:17;98525.78;;;27.74;45.21
27202;BME280;14717;46.924;15.474;2023-09-07T12:02:43;98521.38;;;27.76;43.47
27202;BME280;14717;46.924;15.474;2023-09-07T12:05:08;98531.63;;;27.51;44.27
27202;BME280;14717;46.924;15.474;2023-09-07T12:07:38;98521.38;;;26.89;47.36
27202;BME280;14717;46.924;15.474;2023-09-07T12:10:04;98528.06;;;26.77;48.13
27202;BME280;14717;46.924;15.474;2023-09-07T12:12:29;98515.88;;;27.28;48.11
27202;BME280;14717;46.924;15.474;2023-09-07T12:14:55;98513.81;;;26.99;46.61
27202;BME280;14717;46.924;15.474;2023-09-07T12:17:22;98518.88;;;26.61;48.18
27202;BME280;14717;46.924;15.474;2023-09-07T12:19:47;98512.78;;;26.85;47.48
27202;BME280;14717;46.924;15.474;2023-09-07T12:22:13;98509.44;;;27.31;49.21
27202;BME280;14717;46.924;15.474;2023-09-07T12:24:38;98512.13;;;27.50;45.34
27202;BME280;14717;46.924;15.474;2023-09-07T12:27:04;98507.88;;;27.37;45.29
27202;BME280;14717;46.924;15.474;2023-09-07T12:29:29;98499.22;;;27.56;43.16
27202;BME280;14717;46.924;15.474;2023-09-07T12:31:55;98510.94;;;27.25;43.31
27202;BME280;14717;46.924;15.474;2023-09-07T12:34:22;98498.84;;;27.28;45.58
27202;BME280;14717;46.924;15.474;2023-09-07T12:36:47;98493.66;;;27.66;44.66
27202;BME280;14717;46.924;15.474;2023-09-07T12:39:14;98501.44;;;28.05;44.99